TAF KDSM
KDSM 081740Z 0818/0918 14004KT P6SM FEW250 FM090000 13009KT P6SM SCT250 FM090700 14012KT P6SM SCT090 BKN250 WS020/18040KT FM091000 14011KT P6SM VCSH SCT035 BKN070 FM091200 15011KT P6SM BKN060 FM091600 20007KT P6SM SCT110=
METAR KDSM
WC KDSM
WS KDSM
WV KDSM